Elliot Lake, Canada
Current Conditions -  °F | °C
As of 8:00 AM on Friday 31 Oct 2014 (Local Time) from CYZE Reporting Station
Light Snow Light Snow  
Wind Chill: 19°   Ceiling: 1200
Heat Index: 34°   Visibility: 1.7mi
Dew Point: 30°   Wind: 35mph
Humidity: 87%   Direction: 40°NE
Pressure: 29.97"   Gusts: 46mph
Location:  46.38°N, 82.65°W
Report Text: CYZE 311200Z AUTO 04030G40KT 1 3/4SM -SN BKN012 OVC018 01/M01 A2997 RMK ICG PCPN 0.5MM PAST HR SLP157
Loading
Personal Weather Stations






























Interactive Weather Map
Tropical Storm Tracking
New forecast layout! Learn more

10-Day Weather Forecast

Advertisements
Track Severe Weather on mobile